sensor_id;sensor_type;location;lat;lon;timestamp;P1;durP1;ratioP1;P2;durP2;ratioP2
24897;SDS011;12957;49.434;8.684;2024-02-04T00:00:31;2.08;;;1.98;;
24897;SDS011;12957;49.434;8.684;2024-02-04T00:02:57;2.30;;;1.92;;
24897;SDS011;12957;49.434;8.684;2024-02-04T00:05:22;2.65;;;1.90;;
24897;SDS011;12957;49.434;8.684;2024-02-04T00:07:48;2.25;;;1.80;;
24897;SDS011;12957;49.434;8.684;2024-02-04T00:10:13;2.17;;;2.08;;
24897;SDS011;12957;49.434;8.684;2024-02-04T00:12:40;1.83;;;1.73;;
24897;SDS011;12957;49.434;8.684;2024-02-04T00:15:06;2.10;;;1.92;;
24897;SDS011;12957;49.434;8.684;2024-02-04T00:17:33;2.10;;;1.92;;
24897;SDS011;12957;49.434;8.684;2024-02-04T00:19:59;2.78;;;2.15;;
24897;SDS011;12957;49.434;8.684;2024-02-04T00:22:26;3.28;;;1.83;;
24897;SDS011;12957;49.434;8.684;2024-02-04T00:24:53;2.03;;;1.83;;
24897;SDS011;12957;49.434;8.684;2024-02-04T00:27:18;4.50;;;2.00;;
24897;SDS011;12957;49.434;8.684;2024-02-04T00:29:44;3.13;;;1.77;;
24897;SDS011;12957;49.434;8.684;2024-02-04T00:32:09;3.22;;;1.80;;
24897;SDS011;12957;49.434;8.684;2024-02-04T00:34:35;2.60;;;1.90;;
24897;SDS011;12957;49.434;8.684;2024-02-04T00:37:01;3.55;;;1.75;;
24897;SDS011;12957;49.434;8.684;2024-02-04T00:39:26;1.95;;;1.63;;
24897;SDS011;12957;49.434;8.684;2024-02-04T00:41:52;1.75;;;1.65;;
24897;SDS011;12957;49.434;8.684;2024-02-04T00:44:17;3.60;;;2.25;;
24897;SDS011;12957;49.434;8.684;2024-02-04T00:46:43;2.47;;;2.28;;
24897;SDS011;12957;49.434;8.684;2024-02-04T00:49:09;3.67;;;2.45;;
24897;SDS011;12957;49.434;8.684;2024-02-04T00:51:35;4.60;;;2.70;;
24897;SDS011;12957;49.434;8.684;2024-02-04T00:54:01;3.20;;;2.90;;
24897;SDS011;12957;49.434;8.684;2024-02-04T00:56:27;3.95;;;3.13;;
24897;SDS011;12957;49.434;8.684;2024-02-04T00:58:52;3.17;;;2.90;;
24897;SDS011;12957;49.434;8.684;2024-02-04T01:01:18;2.97;;;2.78;;
24897;SDS011;12957;49.434;8.684;2024-02-04T01:03:44;9.43;;;3.38;;
24897;SDS011;12957;49.434;8.684;2024-02-04T01:06:10;3.58;;;3.03;;
24897;SDS011;12957;49.434;8.684;2024-02-04T01:08:35;3.50;;;3.15;;
24897;SDS011;12957;49.434;8.684;2024-02-04T01:11:02;5.07;;;2.92;;
24897;SDS011;12957;49.434;8.684;2024-02-04T01:13:29;4.97;;;3.22;;
24897;SDS011;12957;49.434;8.684;2024-02-04T01:15:55;4.43;;;3.42;;
24897;SDS011;12957;49.434;8.684;2024-02-04T01:18:20;3.92;;;3.35;;
24897;SDS011;12957;49.434;8.684;2024-02-04T01:20:46;3.60;;;3.30;;
24897;SDS011;12957;49.434;8.684;2024-02-04T01:23:11;6.30;;;3.53;;
24897;SDS011;12957;49.434;8.684;2024-02-04T01:25:38;3.08;;;2.85;;
24897;SDS011;12957;49.434;8.684;2024-02-04T01:28:03;4.70;;;3.70;;
24897;SDS011;12957;49.434;8.684;2024-02-04T01:30:29;7.15;;;3.63;;
24897;SDS011;12957;49.434;8.684;2024-02-04T01:32:56;4.15;;;3.72;;
24897;SDS011;12957;49.434;8.684;2024-02-04T01:35:21;5.28;;;3.80;;
24897;SDS011;12957;49.434;8.684;2024-02-04T01:37:47;4.68;;;3.90;;
24897;SDS011;12957;49.434;8.684;2024-02-04T01:40:13;5.22;;;3.65;;
24897;SDS011;12957;49.434;8.684;2024-02-04T01:42:39;8.73;;;3.88;;
24897;SDS011;12957;49.434;8.684;2024-02-04T01:45:05;5.05;;;3.92;;
24897;SDS011;12957;49.434;8.684;2024-02-04T01:47:30;4.07;;;3.67;;
24897;SDS011;12957;49.434;8.684;2024-02-04T01:49:56;5.82;;;4.10;;
24897;SDS011;12957;49.434;8.684;2024-02-04T01:52:21;5.15;;;4.22;;
24897;SDS011;12957;49.434;8.684;2024-02-04T01:54:47;5.85;;;4.13;;
24897;SDS011;12957;49.434;8.684;2024-02-04T01:57:13;5.30;;;3.50;;
24897;SDS011;12957;49.434;8.684;2024-02-04T01:59:39;5.50;;;4.07;;
24897;SDS011;12957;49.434;8.684;2024-02-04T02:02:05;6.45;;;4.13;;
24897;SDS011;12957;49.434;8.684;2024-02-04T02:04:30;5.90;;;4.00;;
24897;SDS011;12957;49.434;8.684;2024-02-04T02:06:56;6.55;;;4.05;;
24897;SDS011;12957;49.434;8.684;2024-02-04T02:09:24;6.40;;;4.10;;
24897;SDS011;12957;49.434;8.684;2024-02-04T02:11:54;4.93;;;3.80;;
24897;SDS011;12957;49.434;8.684;2024-02-04T02:14:24;4.05;;;3.65;;
24897;SDS011;12957;49.434;8.684;2024-02-04T02:16:52;4.78;;;3.88;;
24897;SDS011;12957;49.434;8.684;2024-02-04T02:19:31;7.07;;;4.13;;
24897;SDS011;12957;49.434;8.684;2024-02-04T02:24:36;5.63;;;4.00;;
24897;SDS011;12957;49.434;8.684;2024-02-04T02:27:04;6.60;;;4.57;;
24897;SDS011;12957;49.434;8.684;2024-02-04T02:29:31;4.70;;;3.95;;
24897;SDS011;12957;49.434;8.684;2024-02-04T02:31:57;6.85;;;4.47;;
24897;SDS011;12957;49.434;8.684;2024-02-04T02:34:23;10.40;;;4.57;;
24897;SDS011;12957;49.434;8.684;2024-02-04T02:36:59;6.75;;;4.38;;
24897;SDS011;12957;49.434;8.684;2024-02-04T02:39:57;8.35;;;4.60;;
24897;SDS011;12957;49.434;8.684;2024-02-04T02:42:24;6.47;;;4.25;;
24897;SDS011;12957;49.434;8.684;2024-02-04T02:44:51;6.32;;;4.32;;
24897;SDS011;12957;49.434;8.684;2024-02-04T02:47:18;4.85;;;4.13;;
24897;SDS011;12957;49.434;8.684;2024-02-04T02:49:44;4.53;;;4.03;;
24897;SDS011;12957;49.434;8.684;2024-02-04T02:52:10;5.43;;;4.15;;
24897;SDS011;12957;49.434;8.684;2024-02-04T02:54:35;5.80;;;4.13;;
24897;SDS011;12957;49.434;8.684;2024-02-04T02:57:01;5.97;;;4.28;;
24897;SDS011;12957;49.434;8.684;2024-02-04T02:59:27;5.60;;;4.10;;
24897;SDS011;12957;49.434;8.684;2024-02-04T03:01:52;6.27;;;4.17;;
24897;SDS011;12957;49.434;8.684;2024-02-04T03:04:18;5.90;;;4.00;;
24897;SDS011;12957;49.434;8.684;2024-02-04T03:06:43;6.13;;;3.97;;
24897;SDS011;12957;49.434;8.684;2024-02-04T03:09:09;4.75;;;3.80;;
24897;SDS011;12957;49.434;8.684;2024-02-04T03:11:35;6.63;;;4.05;;
24897;SDS011;12957;49.434;8.684;2024-02-04T03:14:02;3.83;;;3.50;;
24897;SDS011;12957;49.434;8.684;2024-02-04T03:16:28;5.15;;;3.78;;
24897;SDS011;12957;49.434;8.684;2024-02-04T03:18:53;5.80;;;3.80;;
24897;SDS011;12957;49.434;8.684;2024-02-04T03:21:19;4.68;;;3.92;;
24897;SDS011;12957;49.434;8.684;2024-02-04T03:23:45;5.97;;;4.07;;
24897;SDS011;12957;49.434;8.684;2024-02-04T03:26:11;7.38;;;3.90;;
24897;SDS011;12957;49.434;8.684;2024-02-04T03:28:36;6.05;;;4.20;;
24897;SDS011;12957;49.434;8.684;2024-02-04T03:31:02;5.28;;;3.70;;
24897;SDS011;12957;49.434;8.684;2024-02-04T03:33:28;4.72;;;3.90;;
24897;SDS011;12957;49.434;8.684;2024-02-04T03:35:53;4.43;;;3.80;;
24897;SDS011;12957;49.434;8.684;2024-02-04T03:38:19;4.30;;;3.90;;
24897;SDS011;12957;49.434;8.684;2024-02-04T03:40:44;5.25;;;3.80;;
24897;SDS011;12957;49.434;8.684;2024-02-04T03:43:10;4.63;;;4.20;;
24897;SDS011;12957;49.434;8.684;2024-02-04T03:45:36;4.32;;;3.92;;
24897;SDS011;12957;49.434;8.684;2024-02-04T03:48:02;4.53;;;3.67;;
24897;SDS011;12957;49.434;8.684;2024-02-04T03:50:27;4.25;;;3.75;;
24897;SDS011;12957;49.434;8.684;2024-02-04T03:52:53;4.35;;;3.58;;
24897;SDS011;12957;49.434;8.684;2024-02-04T03:55:19;4.32;;;3.80;;
24897;SDS011;12957;49.434;8.684;2024-02-04T03:57:44;7.10;;;3.80;;
24897;SDS011;12957;49.434;8.684;2024-02-04T04:00:10;5.45;;;3.80;;
24897;SDS011;12957;49.434;8.684;2024-02-04T04:02:36;7.05;;;3.80;;
24897;SDS011;12957;49.434;8.684;2024-02-04T04:05:02;3.90;;;3.55;;
24897;SDS011;12957;49.434;8.684;2024-02-04T04:07:27;6.25;;;3.90;;
24897;SDS011;12957;49.434;8.684;2024-02-04T04:09:53;4.63;;;3.80;;
24897;SDS011;12957;49.434;8.684;2024-02-04T04:12:18;3.60;;;3.30;;
24897;SDS011;12957;49.434;8.684;2024-02-04T04:14:44;3.67;;;3.28;;
24897;SDS011;12957;49.434;8.684;2024-02-04T04:17:09;4.53;;;3.70;;
24897;SDS011;12957;49.434;8.684;2024-02-04T04:19:35;3.28;;;2.80;;
24897;SDS011;12957;49.434;8.684;2024-02-04T04:22:02;3.65;;;3.33;;
24897;SDS011;12957;49.434;8.684;2024-02-04T04:24:27;3.45;;;3.15;;
24897;SDS011;12957;49.434;8.684;2024-02-04T04:26:53;3.40;;;3.10;;
24897;SDS011;12957;49.434;8.684;2024-02-04T04:29:18;4.43;;;2.97;;
24897;SDS011;12957;49.434;8.684;2024-02-04T04:31:44;3.65;;;3.10;;
24897;SDS011;12957;49.434;8.684;2024-02-04T04:34:10;3.20;;;2.95;;
24897;SDS011;12957;49.434;8.684;2024-02-04T04:36:35;2.70;;;2.50;;
24897;SDS011;12957;49.434;8.684;2024-02-04T04:39:01;5.85;;;2.83;;
24897;SDS011;12957;49.434;8.684;2024-02-04T04:41:26;2.67;;;2.45;;
24897;SDS011;12957;49.434;8.684;2024-02-04T04:43:52;2.50;;;2.28;;
24897;SDS011;12957;49.434;8.684;2024-02-04T04:46:17;3.05;;;2.75;;
24897;SDS011;12957;49.434;8.684;2024-02-04T04:48:43;4.28;;;2.33;;
24897;SDS011;12957;49.434;8.684;2024-02-04T04:51:11;5.13;;;2.28;;
24897;SDS011;12957;49.434;8.684;2024-02-04T04:53:37;2.22;;;2.03;;
24897;SDS011;12957;49.434;8.684;2024-02-04T04:56:02;3.78;;;2.40;;
24897;SDS011;12957;49.434;8.684;2024-02-04T04:58:28;2.60;;;2.40;;
24897;SDS011;12957;49.434;8.684;2024-02-04T05:00:53;3.00;;;2.35;;
24897;SDS011;12957;49.434;8.684;2024-02-04T05:03:19;2.40;;;2.20;;
24897;SDS011;12957;49.434;8.684;2024-02-04T05:05:44;2.10;;;2.00;;
24897;SDS011;12957;49.434;8.684;2024-02-04T05:08:11;2.17;;;1.98;;
24897;SDS011;12957;49.434;8.684;2024-02-04T05:10:37;2.25;;;2.10;;
24897;SDS011;12957;49.434;8.684;2024-02-04T05:13:03;2.42;;;2.17;;
24897;SDS011;12957;49.434;8.684;2024-02-04T05:15:28;1.98;;;1.80;;
24897;SDS011;12957;49.434;8.684;2024-02-04T05:17:54;1.92;;;1.83;;
24897;SDS011;12957;49.434;8.684;2024-02-04T05:20:20;2.65;;;1.98;;
24897;SDS011;12957;49.434;8.684;2024-02-04T05:22:46;4.60;;;1.88;;
24897;SDS011;12957;49.434;8.684;2024-02-04T05:25:11;2.95;;;1.90;;
24897;SDS011;12957;49.434;8.684;2024-02-04T05:27:37;2.00;;;1.90;;
24897;SDS011;12957;49.434;8.684;2024-02-04T05:30:02;1.80;;;1.70;;
24897;SDS011;12957;49.434;8.684;2024-02-04T05:32:28;2.13;;;1.98;;
24897;SDS011;12957;49.434;8.684;2024-02-04T05:34:54;2.20;;;2.00;;
24897;SDS011;12957;49.434;8.684;2024-02-04T05:37:19;1.60;;;1.50;;
24897;SDS011;12957;49.434;8.684;2024-02-04T05:39:47;2.00;;;1.90;;
24897;SDS011;12957;49.434;8.684;2024-02-04T05:42:12;1.60;;;1.50;;
24897;SDS011;12957;49.434;8.684;2024-02-04T05:44:38;2.38;;;1.85;;
24897;SDS011;12957;49.434;8.684;2024-02-04T05:47:03;1.90;;;1.80;;
24897;SDS011;12957;49.434;8.684;2024-02-04T05:49:29;1.63;;;1.52;;
24897;SDS011;12957;49.434;8.684;2024-02-04T05:51:54;4.88;;;1.70;;
24897;SDS011;12957;49.434;8.684;2024-02-04T05:54:20;1.80;;;1.70;;
24897;SDS011;12957;49.434;8.684;2024-02-04T05:56:46;1.60;;;1.50;;
24897;SDS011;12957;49.434;8.684;2024-02-04T05:59:11;2.50;;;1.77;;
24897;SDS011;12957;49.434;8.684;2024-02-04T06:01:37;1.52;;;1.42;;
24897;SDS011;12957;49.434;8.684;2024-02-04T06:04:02;1.83;;;1.73;;
24897;SDS011;12957;49.434;8.684;2024-02-04T06:06:28;2.95;;;1.70;;
24897;SDS011;12957;49.434;8.684;2024-02-04T06:08:54;1.80;;;1.70;;
24897;SDS011;12957;49.434;8.684;2024-02-04T06:11:19;2.63;;;1.50;;
24897;SDS011;12957;49.434;8.684;2024-02-04T06:13:45;2.20;;;2.08;;
24897;SDS011;12957;49.434;8.684;2024-02-04T06:16:10;2.15;;;1.95;;
24897;SDS011;12957;49.434;8.684;2024-02-04T06:18:39;2.38;;;1.83;;
24897;SDS011;12957;49.434;8.684;2024-02-04T06:21:05;1.90;;;1.80;;
24897;SDS011;12957;49.434;8.684;2024-02-04T06:23:31;4.97;;;2.00;;
24897;SDS011;12957;49.434;8.684;2024-02-04T06:25:56;2.78;;;2.00;;
24897;SDS011;12957;49.434;8.684;2024-02-04T06:28:22;1.98;;;1.88;;
24897;SDS011;12957;49.434;8.684;2024-02-04T06:30:48;3.40;;;2.28;;
24897;SDS011;12957;49.434;8.684;2024-02-04T06:33:14;2.47;;;2.17;;
24897;SDS011;12957;49.434;8.684;2024-02-04T06:35:39;2.17;;;1.80;;
24897;SDS011;12957;49.434;8.684;2024-02-04T06:38:05;1.70;;;1.60;;
24897;SDS011;12957;49.434;8.684;2024-02-04T06:40:30;1.95;;;1.75;;
24897;SDS011;12957;49.434;8.684;2024-02-04T06:42:56;1.90;;;1.80;;
24897;SDS011;12957;49.434;8.684;2024-02-04T06:45:21;2.67;;;1.50;;
24897;SDS011;12957;49.434;8.684;2024-02-04T06:47:47;3.75;;;1.77;;
24897;SDS011;12957;49.434;8.684;2024-02-04T06:50:12;1.52;;;1.42;;
24897;SDS011;12957;49.434;8.684;2024-02-04T06:52:42;3.08;;;1.48;;
24897;SDS011;12957;49.434;8.684;2024-02-04T06:55:09;1.63;;;1.52;;
24897;SDS011;12957;49.434;8.684;2024-02-04T06:57:35;2.53;;;1.70;;
24897;SDS011;12957;49.434;8.684;2024-02-04T07:00:00;2.22;;;1.70;;
24897;SDS011;12957;49.434;8.684;2024-02-04T07:02:26;1.80;;;1.70;;
24897;SDS011;12957;49.434;8.684;2024-02-04T07:04:52;1.80;;;1.48;;
24897;SDS011;12957;49.434;8.684;2024-02-04T07:07:17;3.25;;;1.75;;
24897;SDS011;12957;49.434;8.684;2024-02-04T07:09:43;1.85;;;1.75;;
24897;SDS011;12957;49.434;8.684;2024-02-04T07:12:08;2.17;;;2.00;;
24897;SDS011;12957;49.434;8.684;2024-02-04T07:14:34;1.90;;;1.80;;
24897;SDS011;12957;49.434;8.684;2024-02-04T07:16:59;1.80;;;1.70;;
24897;SDS011;12957;49.434;8.684;2024-02-04T07:19:25;4.93;;;1.90;;
24897;SDS011;12957;49.434;8.684;2024-02-04T07:21:50;2.15;;;2.00;;
24897;SDS011;12957;49.434;8.684;2024-02-04T07:24:16;1.98;;;1.88;;
24897;SDS011;12957;49.434;8.684;2024-02-04T07:26:41;1.92;;;1.83;;
24897;SDS011;12957;49.434;8.684;2024-02-04T07:29:07;2.33;;;1.90;;
24897;SDS011;12957;49.434;8.684;2024-02-04T07:31:32;1.70;;;1.60;;
24897;SDS011;12957;49.434;8.684;2024-02-04T07:34:02;1.92;;;1.83;;
24897;SDS011;12957;49.434;8.684;2024-02-04T07:36:28;3.58;;;2.10;;
24897;SDS011;12957;49.434;8.684;2024-02-04T07:38:53;1.90;;;1.80;;
24897;SDS011;12957;49.434;8.684;2024-02-04T07:41:18;3.38;;;1.70;;
24897;SDS011;12957;49.434;8.684;2024-02-04T07:43:44;2.22;;;2.03;;
24897;SDS011;12957;49.434;8.684;2024-02-04T07:46:09;3.28;;;1.85;;
24897;SDS011;12957;49.434;8.684;2024-02-04T07:48:35;2.85;;;2.20;;
24897;SDS011;12957;49.434;8.684;2024-02-04T07:51:01;11.35;;;6.18;;
24897;SDS011;12957;49.434;8.684;2024-02-04T07:53:26;4.85;;;3.67;;
24897;SDS011;12957;49.434;8.684;2024-02-04T07:55:52;5.88;;;4.25;;
24897;SDS011;12957;49.434;8.684;2024-02-04T07:58:17;3.38;;;2.80;;
24897;SDS011;12957;49.434;8.684;2024-02-04T08:00:43;4.07;;;3.75;;
24897;SDS011;12957;49.434;8.684;2024-02-04T08:03:08;2.67;;;2.47;;
24897;SDS011;12957;49.434;8.684;2024-02-04T08:05:34;2.90;;;2.55;;
24897;SDS011;12957;49.434;8.684;2024-02-04T08:08:00;2.53;;;2.30;;
24897;SDS011;12957;49.434;8.684;2024-02-04T08:10:26;2.53;;;2.33;;
24897;SDS011;12957;49.434;8.684;2024-02-04T08:12:52;3.00;;;2.78;;
24897;SDS011;12957;49.434;8.684;2024-02-04T08:15:18;3.17;;;2.55;;
24897;SDS011;12957;49.434;8.684;2024-02-04T08:17:44;2.63;;;2.42;;
24897;SDS011;12957;49.434;8.684;2024-02-04T08:20:10;2.50;;;2.30;;
24897;SDS011;12957;49.434;8.684;2024-02-04T08:22:35;4.53;;;2.35;;
24897;SDS011;12957;49.434;8.684;2024-02-04T08:25:01;2.40;;;2.20;;
24897;SDS011;12957;49.434;8.684;2024-02-04T08:27:27;2.38;;;2.17;;
24897;SDS011;12957;49.434;8.684;2024-02-04T08:29:53;4.13;;;2.30;;
24897;SDS011;12957;49.434;8.684;2024-02-04T08:32:19;2.30;;;2.10;;
24897;SDS011;12957;49.434;8.684;2024-02-04T08:34:44;3.33;;;2.58;;
24897;SDS011;12957;49.434;8.684;2024-02-04T08:37:10;2.28;;;2.13;;
24897;SDS011;12957;49.434;8.684;2024-02-04T08:39:35;2.38;;;2.10;;
24897;SDS011;12957;49.434;8.684;2024-02-04T08:42:01;2.33;;;2.10;;
24897;SDS011;12957;49.434;8.684;2024-02-04T08:44:26;2.25;;;1.95;;
24897;SDS011;12957;49.434;8.684;2024-02-04T08:46:52;4.50;;;1.88;;
24897;SDS011;12957;49.434;8.684;2024-02-04T08:49:17;3.13;;;2.17;;
24897;SDS011;12957;49.434;8.684;2024-02-04T08:51:43;2.13;;;1.77;;
24897;SDS011;12957;49.434;8.684;2024-02-04T08:54:08;2.25;;;1.88;;
24897;SDS011;12957;49.434;8.684;2024-02-04T08:56:34;1.92;;;1.83;;
24897;SDS011;12957;49.434;8.684;2024-02-04T08:58:59;1.95;;;1.85;;
24897;SDS011;12957;49.434;8.684;2024-02-04T09:01:26;2.10;;;1.98;;
24897;SDS011;12957;49.434;8.684;2024-02-04T09:03:52;2.00;;;1.80;;
24897;SDS011;12957;49.434;8.684;2024-02-04T09:06:18;1.98;;;1.88;;
24897;SDS011;12957;49.434;8.684;2024-02-04T09:08:43;2.55;;;1.90;;
24897;SDS011;12957;49.434;8.684;2024-02-04T09:11:09;1.80;;;1.70;;
24897;SDS011;12957;49.434;8.684;2024-02-04T09:13:34;1.77;;;1.67;;
24897;SDS011;12957;49.434;8.684;2024-02-04T09:16:00;1.70;;;1.60;;
24897;SDS011;12957;49.434;8.684;2024-02-04T09:18:25;1.80;;;1.70;;
24897;SDS011;12957;49.434;8.684;2024-02-04T09:20:51;1.67;;;1.58;;
24897;SDS011;12957;49.434;8.684;2024-02-04T09:23:16;1.70;;;1.60;;
24897;SDS011;12957;49.434;8.684;2024-02-04T09:25:42;4.40;;;1.30;;
24897;SDS011;12957;49.434;8.684;2024-02-04T09:28:07;1.98;;;1.60;;
24897;SDS011;12957;49.434;8.684;2024-02-04T09:30:33;3.28;;;1.70;;
24897;SDS011;12957;49.434;8.684;2024-02-04T09:32:58;1.50;;;1.40;;
24897;SDS011;12957;49.434;8.684;2024-02-04T09:35:23;2.25;;;1.75;;
24897;SDS011;12957;49.434;8.684;2024-02-04T09:37:49;1.58;;;1.42;;
24897;SDS011;12957;49.434;8.684;2024-02-04T09:40:14;1.30;;;1.30;;
24897;SDS011;12957;49.434;8.684;2024-02-04T09:42:40;1.80;;;1.70;;
24897;SDS011;12957;49.434;8.684;2024-02-04T09:45:05;1.85;;;1.75;;
24897;SDS011;12957;49.434;8.684;2024-02-04T09:47:32;1.60;;;1.50;;
24897;SDS011;12957;49.434;8.684;2024-02-04T09:49:57;1.65;;;1.55;;
24897;SDS011;12957;49.434;8.684;2024-02-04T09:52:26;1.33;;;1.33;;
24897;SDS011;12957;49.434;8.684;2024-02-04T09:54:55;1.10;;;1.10;;
24897;SDS011;12957;49.434;8.684;2024-02-04T09:57:24;1.27;;;1.20;;
24897;SDS011;12957;49.434;8.684;2024-02-04T09:59:49;1.63;;;1.48;;
24897;SDS011;12957;49.434;8.684;2024-02-04T10:02:15;1.55;;;1.45;;
24897;SDS011;12957;49.434;8.684;2024-02-04T10:04:40;1.52;;;1.42;;
24897;SDS011;12957;49.434;8.684;2024-02-04T10:07:06;1.75;;;1.60;;
24897;SDS011;12957;49.434;8.684;2024-02-04T10:09:32;1.60;;;1.50;;
24897;SDS011;12957;49.434;8.684;2024-02-04T10:11:57;1.65;;;1.50;;
24897;SDS011;12957;49.434;8.684;2024-02-04T10:14:23;1.05;;;1.05;;
24897;SDS011;12957;49.434;8.684;2024-02-04T10:16:49;1.20;;;1.20;;
24897;SDS011;12957;49.434;8.684;2024-02-04T10:19:14;2.15;;;1.45;;
24897;SDS011;12957;49.434;8.684;2024-02-04T10:21:40;1.23;;;1.23;;
24897;SDS011;12957;49.434;8.684;2024-02-04T10:24:06;1.05;;;1.05;;
24897;SDS011;12957;49.434;8.684;2024-02-04T10:26:32;1.33;;;1.20;;
24897;SDS011;12957;49.434;8.684;2024-02-04T10:29:00;1.23;;;1.10;;
24897;SDS011;12957;49.434;8.684;2024-02-04T10:31:26;1.60;;;1.10;;
24897;SDS011;12957;49.434;8.684;2024-02-04T10:33:52;1.10;;;1.10;;
24897;SDS011;12957;49.434;8.684;2024-02-04T10:36:17;1.33;;;1.23;;
24897;SDS011;12957;49.434;8.684;2024-02-04T10:38:43;1.42;;;1.20;;
24897;SDS011;12957;49.434;8.684;2024-02-04T10:41:08;1.33;;;1.10;;
24897;SDS011;12957;49.434;8.684;2024-02-04T10:43:43;1.10;;;1.10;;
24897;SDS011;12957;49.434;8.684;2024-02-04T10:46:12;1.20;;;1.17;;
24897;SDS011;12957;49.434;8.684;2024-02-04T10:48:38;1.65;;;1.55;;
24897;SDS011;12957;49.434;8.684;2024-02-04T10:51:11;1.38;;;1.23;;
24897;SDS011;12957;49.434;8.684;2024-02-04T10:53:39;1.00;;;1.00;;
24897;SDS011;12957;49.434;8.684;2024-02-04T10:56:06;1.42;;;1.15;;
24897;SDS011;12957;49.434;8.684;2024-02-04T10:58:32;1.33;;;1.23;;
24897;SDS011;12957;49.434;8.684;2024-02-04T11:00:58;0.88;;;0.88;;
24897;SDS011;12957;49.434;8.684;2024-02-04T11:03:24;1.75;;;0.90;;
24897;SDS011;12957;49.434;8.684;2024-02-04T11:05:52;1.10;;;1.00;;
24897;SDS011;12957;49.434;8.684;2024-02-04T11:08:19;1.20;;;1.20;;
24897;SDS011;12957;49.434;8.684;2024-02-04T11:10:44;0.93;;;0.93;;
24897;SDS011;12957;49.434;8.684;2024-02-04T11:13:10;2.17;;;0.88;;
24897;SDS011;12957;49.434;8.684;2024-02-04T11:15:36;0.90;;;0.90;;
24897;SDS011;12957;49.434;8.684;2024-02-04T11:20:58;29.48;;;2.17;;
24897;SDS011;12957;49.434;8.684;2024-02-04T11:26:19;1.13;;;1.00;;
24897;SDS011;12957;49.434;8.684;2024-02-04T11:28:45;0.88;;;0.88;;
24897;SDS011;12957;49.434;8.684;2024-02-04T11:31:14;1.02;;;1.02;;
24897;SDS011;12957;49.434;8.684;2024-02-04T11:33:41;0.65;;;0.65;;
24897;SDS011;12957;49.434;8.684;2024-02-04T11:36:06;0.70;;;0.70;;
24897;SDS011;12957;49.434;8.684;2024-02-04T11:38:35;1.02;;;0.90;;
24897;SDS011;12957;49.434;8.684;2024-02-04T11:41:02;0.80;;;0.80;;
24897;SDS011;12957;49.434;8.684;2024-02-04T11:43:28;2.00;;;1.10;;
24897;SDS011;12957;49.434;8.684;2024-02-04T11:45:54;1.33;;;1.00;;
24897;SDS011;12957;49.434;8.684;2024-02-04T11:48:19;1.00;;;1.00;;
24897;SDS011;12957;49.434;8.684;2024-02-04T11:50:51;1.73;;;1.00;;
24897;SDS011;12957;49.434;8.684;2024-02-04T11:53:18;0.90;;;0.90;;
24897;SDS011;12957;49.434;8.684;2024-02-04T11:55:43;0.85;;;0.85;;
24897;SDS011;12957;49.434;8.684;2024-02-04T11:58:10;0.68;;;0.68;;
24897;SDS011;12957;49.434;8.684;2024-02-04T12:00:36;1.15;;;1.10;;
24897;SDS011;12957;49.434;8.684;2024-02-04T12:03:02;2.45;;;0.98;;
24897;SDS011;12957;49.434;8.684;2024-02-04T12:05:29;0.80;;;0.80;;
24897;SDS011;12957;49.434;8.684;2024-02-04T12:07:56;1.17;;;0.95;;
24897;SDS011;12957;49.434;8.684;2024-02-04T12:10:21;1.00;;;1.00;;
24897;SDS011;12957;49.434;8.684;2024-02-04T12:12:47;0.80;;;0.80;;
24897;SDS011;12957;49.434;8.684;2024-02-04T12:15:13;0.80;;;0.80;;
24897;SDS011;12957;49.434;8.684;2024-02-04T12:17:39;1.70;;;0.70;;
24897;SDS011;12957;49.434;8.684;2024-02-04T12:20:05;0.93;;;0.93;;
24897;SDS011;12957;49.434;8.684;2024-02-04T12:22:31;5.47;;;1.00;;
24897;SDS011;12957;49.434;8.684;2024-02-04T12:24:58;1.00;;;1.00;;
24897;SDS011;12957;49.434;8.684;2024-02-04T12:27:24;0.90;;;0.90;;
24897;SDS011;12957;49.434;8.684;2024-02-04T12:29:52;1.13;;;0.98;;
24897;SDS011;12957;49.434;8.684;2024-02-04T12:32:18;0.95;;;0.95;;
24897;SDS011;12957;49.434;8.684;2024-02-04T12:34:50;1.23;;;1.00;;
24897;SDS011;12957;49.434;8.684;2024-02-04T12:37:21;0.90;;;0.90;;
24897;SDS011;12957;49.434;8.684;2024-02-04T12:39:47;3.50;;;1.10;;
24897;SDS011;12957;49.434;8.684;2024-02-04T12:42:16;1.23;;;1.10;;
24897;SDS011;12957;49.434;8.684;2024-02-04T12:44:47;1.35;;;1.30;;
24897;SDS011;12957;49.434;8.684;2024-02-04T12:50:03;2.70;;;1.00;;
24897;SDS011;12957;49.434;8.684;2024-02-04T12:52:30;1.50;;;0.90;;
24897;SDS011;12957;49.434;8.684;2024-02-04T12:54:59;0.80;;;0.80;;
24897;SDS011;12957;49.434;8.684;2024-02-04T12:57:24;1.00;;;0.90;;
24897;SDS011;12957;49.434;8.684;2024-02-04T12:59:50;0.70;;;0.70;;
24897;SDS011;12957;49.434;8.684;2024-02-04T13:02:15;0.95;;;0.93;;
24897;SDS011;12957;49.434;8.684;2024-02-04T13:04:41;0.95;;;0.88;;
24897;SDS011;12957;49.434;8.684;2024-02-04T13:07:11;1.00;;;1.00;;
24897;SDS011;12957;49.434;8.684;2024-02-04T13:09:39;0.82;;;0.82;;
24897;SDS011;12957;49.434;8.684;2024-02-04T13:12:05;1.00;;;1.00;;
24897;SDS011;12957;49.434;8.684;2024-02-04T13:14:32;0.85;;;0.85;;
24897;SDS011;12957;49.434;8.684;2024-02-04T13:16:58;2.08;;;0.93;;
24897;SDS011;12957;49.434;8.684;2024-02-04T13:19:23;1.10;;;0.95;;
24897;SDS011;12957;49.434;8.684;2024-02-04T13:21:49;0.93;;;0.93;;
24897;SDS011;12957;49.434;8.684;2024-02-04T13:24:14;1.58;;;0.95;;
24897;SDS011;12957;49.434;8.684;2024-02-04T13:26:40;0.95;;;0.95;;
24897;SDS011;12957;49.434;8.684;2024-02-04T13:29:06;0.85;;;0.80;;
24897;SDS011;12957;49.434;8.684;2024-02-04T13:31:31;0.93;;;0.93;;
24897;SDS011;12957;49.434;8.684;2024-02-04T13:33:57;1.02;;;1.02;;
24897;SDS011;12957;49.434;8.684;2024-02-04T13:36:23;2.15;;;1.33;;
24897;SDS011;12957;49.434;8.684;2024-02-04T13:38:48;1.48;;;1.05;;
24897;SDS011;12957;49.434;8.684;2024-02-04T13:41:14;1.05;;;1.00;;
24897;SDS011;12957;49.434;8.684;2024-02-04T13:43:39;0.90;;;0.90;;
24897;SDS011;12957;49.434;8.684;2024-02-04T13:46:05;1.20;;;1.10;;
24897;SDS011;12957;49.434;8.684;2024-02-04T13:48:30;1.42;;;1.33;;
24897;SDS011;12957;49.434;8.684;2024-02-04T13:50:56;1.20;;;1.10;;
24897;SDS011;12957;49.434;8.684;2024-02-04T13:53:21;1.17;;;1.10;;
24897;SDS011;12957;49.434;8.684;2024-02-04T13:55:48;0.90;;;0.90;;
24897;SDS011;12957;49.434;8.684;2024-02-04T13:58:14;1.08;;;0.77;;
24897;SDS011;12957;49.434;8.684;2024-02-04T14:00:39;1.13;;;0.90;;
24897;SDS011;12957;49.434;8.684;2024-02-04T14:03:05;1.02;;;0.98;;
24897;SDS011;12957;49.434;8.684;2024-02-04T14:05:31;0.90;;;0.90;;
24897;SDS011;12957;49.434;8.684;2024-02-04T14:07:57;0.90;;;0.90;;
24897;SDS011;12957;49.434;8.684;2024-02-04T14:10:23;1.00;;;1.00;;
24897;SDS011;12957;49.434;8.684;2024-02-04T14:12:48;1.02;;;1.02;;
24897;SDS011;12957;49.434;8.684;2024-02-04T14:15:14;1.05;;;1.00;;
24897;SDS011;12957;49.434;8.684;2024-02-04T14:17:39;1.30;;;1.20;;
24897;SDS011;12957;49.434;8.684;2024-02-04T14:20:06;1.17;;;1.10;;
24897;SDS011;12957;49.434;8.684;2024-02-04T14:22:32;1.10;;;1.02;;
24897;SDS011;12957;49.434;8.684;2024-02-04T14:24:57;1.40;;;1.30;;
24897;SDS011;12957;49.434;8.684;2024-02-04T14:27:24;1.75;;;1.20;;
24897;SDS011;12957;49.434;8.684;2024-02-04T14:29:50;1.40;;;1.13;;
24897;SDS011;12957;49.434;8.684;2024-02-04T14:32:16;1.23;;;1.23;;
24897;SDS011;12957;49.434;8.684;2024-02-04T14:34:41;1.20;;;1.20;;
24897;SDS011;12957;49.434;8.684;2024-02-04T14:37:07;1.17;;;1.15;;
24897;SDS011;12957;49.434;8.684;2024-02-04T14:39:33;1.55;;;1.45;;
24897;SDS011;12957;49.434;8.684;2024-02-04T14:41:58;1.05;;;1.00;;
24897;SDS011;12957;49.434;8.684;2024-02-04T14:44:24;1.58;;;1.48;;
24897;SDS011;12957;49.434;8.684;2024-02-04T14:46:50;1.90;;;1.10;;
24897;SDS011;12957;49.434;8.684;2024-02-04T14:49:15;1.35;;;1.30;;
24897;SDS011;12957;49.434;8.684;2024-02-04T14:51:41;1.30;;;1.30;;